Time;durP1;ratioP1;P1;durP2;ratioP2;P2;SDS_P1;SDS_P2;PMS_P1;PMS_P2;Temp;Humidity;BMP_temperature;BMP_pressure;BME280_temperature;BME280_humidity;BME280_pressure;Samples;Min_cycle;Max_cycle;Signal;HPM_P1;HPM_P2
2023/02/22 00:00:47;;;;;;;47.87;18.50;;;8.80;99.90;;;;;;5005204;28;20462;-82
2023/02/22 00:03:31;;;;;;;49.57;17.70;;;8.60;99.90;;;;;;5004744;28;20486;-85
2023/02/22 00:06:03;;;;;;;54.77;21.50;;;8.50;99.90;;;;;;5001565;28;20467;-84
2023/02/22 00:08:33;;;;;;;38.27;17.50;;;8.40;99.90;;;;;;5011806;28;20478;-84
2023/02/22 00:11:07;;;;;;;41.40;17.00;;;8.30;99.90;;;;;;5007854;28;20499;-82
2023/02/22 00:13:35;;;;;;;49.90;16.17;;;8.30;99.90;;;;;;5011723;28;20467;-84
2023/02/22 00:16:03;;;;;;;60.53;17.97;;;8.10;99.90;;;;;;5017946;28;20511;-84
2023/02/22 00:21:13;;;;;;;32.60;13.50;;;7.90;99.90;;;;;;5367680;23;20478;-83
2023/02/22 00:23:45;;;;;;;56.50;14.43;;;8.00;99.90;;;;;;5053813;28;20488;-85
2023/02/22 00:26:18;;;;;;;47.80;17.40;;;7.90;99.90;;;;;;5053626;28;20453;-86
2023/02/22 00:28:48;;;;;;;43.83;17.07;;;7.80;99.90;;;;;;5037133;28;20461;-86
2023/02/22 00:31:14;;;;;;;46.07;16.07;;;7.70;99.90;;;;;;5036810;28;20492;-85
2023/02/22 00:33:42;;;;;;;31.90;15.83;;;7.60;99.90;;;;;;5053476;28;20474;-86
2023/02/22 00:36:11;;;;;;;39.67;15.17;;;7.60;99.90;;;;;;5035970;28;20472;-86
2023/02/22 00:38:39;;;;;;;61.30;17.03;;;7.70;99.90;;;;;;5030830;28;20509;-87
2023/02/22 00:41:06;;;;;;;36.43;14.73;;;7.70;99.90;;;;;;5032588;28;20430;-87
2023/02/22 00:43:33;;;;;;;30.43;13.60;;;7.50;99.90;;;;;;5034406;28;20474;-85
2023/02/22 00:46:00;;;;;;;72.63;17.20;;;7.60;99.90;;;;;;5035241;28;20469;-85
2023/02/22 00:48:27;;;;;;;35.07;16.70;;;7.50;99.90;;;;;;5033265;28;20525;-85
2023/02/22 00:50:56;;;;;;;56.67;17.33;;;7.50;99.90;;;;;;5036277;28;20518;-83
2023/02/22 00:53:25;;;;;;;74.33;16.93;;;7.40;99.90;;;;;;5036383;28;20469;-86
2023/02/22 00:55:52;;;;;;;47.03;19.67;;;7.50;99.90;;;;;;5040767;28;20458;-85
2023/02/22 00:58:20;;;;;;;54.93;17.83;;;7.70;99.90;;;;;;5032008;28;20445;-86
2023/02/22 01:00:47;;;;;;;59.33;19.57;;;7.60;99.90;;;;;;5029013;28;20473;-84
2023/02/22 01:03:17;;;;;;;46.10;17.93;;;7.50;99.90;;;;;;5026319;28;20570;-82
2023/02/22 01:05:44;;;;;;;36.20;18.60;;;7.70;99.90;;;;;;5024594;28;20453;-83
2023/02/22 01:08:13;;;;;;;74.63;19.20;;;7.90;99.90;;;;;;5028666;28;20449;-85
2023/02/22 01:10:40;;;;;;;69.97;19.93;;;7.80;99.90;;;;;;5028001;28;20480;-87
2023/02/22 01:13:10;;;;;;;56.73;19.67;;;7.80;99.90;;;;;;5036308;28;20541;-87
2023/02/22 01:15:40;;;;;;;52.57;18.80;;;7.80;99.90;;;;;;5038283;28;20446;-84
2023/02/22 01:18:08;;;;;;;54.37;21.20;;;8.10;99.90;;;;;;5024716;28;20477;-85
2023/02/22 01:20:35;;;;;;;68.33;20.80;;;8.20;99.90;;;;;;5038094;28;20476;-87
2023/02/22 01:23:05;;;;;;;57.10;22.50;;;8.10;99.90;;;;;;5039856;28;20478;-86
2023/02/22 01:25:33;;;;;;;64.93;23.30;;;8.10;99.90;;;;;;5031233;28;20453;-88
2023/02/22 01:28:01;;;;;;;43.40;18.33;;;8.10;99.90;;;;;;5037976;28;20434;-85
2023/02/22 01:30:31;;;;;;;59.70;20.80;;;8.10;99.90;;;;;;5040558;28;20481;-83
2023/02/22 01:35:46;;;;;;;52.60;21.07;;;8.00;99.90;;;;;;5013854;22;20537;-85
2023/02/22 01:38:15;;;;;;;52.73;21.63;;;7.90;99.90;;;;;;5054243;28;20456;-84
2023/02/22 01:40:48;;;;;;;54.53;22.40;;;8.00;99.90;;;;;;5063558;23;20486;-85
2023/02/22 01:46:28;;;;;;;55.13;21.17;;;8.00;99.90;;;;;;5584831;23;20484;-86
2023/02/22 01:49:05;;;;;;;85.90;22.20;;;7.90;99.90;;;;;;5047570;28;20446;-85
2023/02/22 01:51:39;;;;;;;65.30;22.90;;;7.80;99.90;;;;;;5036531;28;20498;-84
2023/02/22 01:54:23;;;;;;;66.93;20.53;;;7.80;99.90;;;;;;5039580;28;20492;-85
2023/02/22 01:57:00;;;;;;;54.23;20.60;;;7.80;99.90;;;;;;5032817;28;20469;-85
2023/02/22 01:59:32;;;;;;;59.10;21.17;;;7.80;99.90;;;;;;5043292;28;20477;-83
2023/02/22 02:02:03;;;;;;;60.00;21.00;;;7.80;99.90;;;;;;5010139;28;20515;-85
2023/02/22 02:04:34;;;;;;;64.80;20.57;;;7.80;99.90;;;;;;5026363;28;20492;-83
2023/02/22 02:07:07;;;;;;;52.93;20.73;;;7.70;99.90;;;;;;5029991;28;20458;-84
2023/02/22 02:09:59;;;;;;;53.93;20.83;;;7.80;99.90;;;;;;5024152;28;20465;-85
2023/02/22 02:12:30;;;;;;;51.60;19.83;;;7.90;99.90;;;;;;5033037;28;20509;-84
2023/02/22 02:15:17;;;;;;;41.60;19.67;;;7.80;99.90;;;;;;5036815;28;20489;-84
2023/02/22 02:17:45;;;;;;;39.90;17.87;;;7.70;99.90;;;;;;5037910;28;20466;-85
2023/02/22 02:20:49;;;;;;;54.87;18.33;;;7.80;99.90;;;;;;5037636;28;20486;-86
2023/02/22 02:23:47;;;;;;;40.23;17.17;;;7.80;99.90;;;;;;5029340;28;20470;-84
2023/02/22 02:26:41;;;;;;;37.83;17.17;;;7.70;99.90;;;;;;5029325;28;20445;-85
2023/02/22 02:29:36;;;;;;;33.93;15.80;;;7.60;99.90;;;;;;5030698;28;21592;-85
2023/02/22 02:32:21;;;;;;;52.93;20.30;;;7.60;99.90;;;;;;5006404;28;20505;-85
2023/02/22 02:34:51;;;;;;;51.77;17.30;;;7.40;99.90;;;;;;5021908;28;20462;-84
2023/02/22 02:37:41;;;;;;;57.90;18.97;;;7.40;99.90;;;;;;5022022;28;20446;-84
2023/02/22 02:43:21;;;;;;;35.13;16.10;;;7.40;99.90;;;;;;5021848;28;20520;-83
2023/02/22 02:45:54;;;;;;;26.93;15.97;;;7.50;99.90;;;;;;5013640;28;20432;-85
2023/02/22 02:48:26;;;;;;;32.93;14.63;;;7.60;99.90;;;;;;5023444;28;20466;-85
2023/02/22 02:50:56;;;;;;;41.60;18.07;;;7.50;99.90;;;;;;5019291;28;20565;-84
2023/02/22 02:53:42;;;;;;;52.27;19.00;;;7.50;99.90;;;;;;5020491;28;20462;-82
2023/02/22 02:56:09;;;;;;;35.97;16.97;;;7.50;99.90;;;;;;5022720;28;20501;-84
2023/02/22 02:58:51;;;;;;;45.00;18.33;;;7.50;99.90;;;;;;5027304;28;20451;-84
2023/02/22 03:01:43;;;;;;;33.97;17.03;;;7.50;99.90;;;;;;5015742;28;20462;-84
2023/02/22 03:04:52;;;;;;;37.67;18.40;;;7.60;99.90;;;;;;5016851;28;20558;-84
2023/02/22 03:08:07;;;;;;;32.90;16.13;;;7.70;99.90;;;;;;5025528;28;20481;-85
2023/02/22 03:10:50;;;;;;;28.70;14.90;;;7.70;99.90;;;;;;4982668;28;20801;-81
2023/02/22 03:13:35;;;;;;;44.63;17.27;;;7.60;99.90;;;;;;5019824;28;20491;-85
2023/02/22 03:16:09;;;;;;;32.70;16.23;;;7.70;99.90;;;;;;5019631;28;20458;-85
2023/02/22 03:19:03;;;;;;;36.33;17.03;;;7.70;99.90;;;;;;5021939;28;20542;-85
2023/02/22 03:22:07;;;;;;;41.80;16.37;;;7.60;99.90;;;;;;5020310;28;20557;-85
2023/02/22 03:24:51;;;;;;;34.77;16.80;;;7.40;99.90;;;;;;5030406;28;20501;-84
2023/02/22 03:27:42;;;;;;;33.80;16.47;;;7.40;99.90;;;;;;5017937;28;20545;-83
2023/02/22 03:30:18;;;;;;;35.47;16.77;;;7.50;99.90;;;;;;5019528;28;20525;-83
2023/02/22 03:32:49;;;;;;;46.30;18.90;;;7.50;99.90;;;;;;5026127;28;20497;-84
2023/02/22 03:35:22;;;;;;;31.30;15.00;;;7.60;99.90;;;;;;5027848;28;20827;-84
2023/02/22 03:37:55;;;;;;;33.70;16.47;;;7.50;99.90;;;;;;5026865;28;20443;-84
2023/02/22 03:40:36;;;;;;;52.50;15.33;;;7.50;99.90;;;;;;5026153;28;20456;-84
2023/02/22 03:43:20;;;;;;;49.60;18.40;;;7.50;99.90;;;;;;5019631;28;20489;-84
2023/02/22 03:45:49;;;;;;;37.37;16.80;;;7.30;99.90;;;;;;5026565;28;20792;-86
2023/02/22 03:48:42;;;;;;;40.93;16.90;;;7.20;99.90;;;;;;5022417;28;20466;-84
2023/02/22 03:51:13;;;;;;;44.93;18.20;;;7.40;99.90;;;;;;4994708;28;20477;-84
2023/02/22 03:53:46;;;;;;;58.10;18.17;;;7.40;99.90;;;;;;5020869;28;20540;-85
2023/02/22 03:56:34;;;;;;;27.10;15.00;;;7.20;99.90;;;;;;5022318;28;20999;-86
2023/02/22 03:59:07;;;;;;;37.87;17.00;;;7.30;99.90;;;;;;5008017;28;20446;-86
2023/02/22 04:01:35;;;;;;;29.83;16.20;;;7.20;99.90;;;;;;5010077;28;20453;-83
2023/02/22 04:04:02;;;;;;;47.77;17.90;;;7.30;99.90;;;;;;5015564;28;20482;-84
2023/02/22 04:06:29;;;;;;;36.90;16.43;;;7.40;99.90;;;;;;5016219;28;20939;-85
2023/02/22 04:08:56;;;;;;;28.03;16.80;;;7.30;99.90;;;;;;5019890;28;20480;-84
2023/02/22 04:11:23;;;;;;;27.20;16.10;;;7.40;99.90;;;;;;5017905;28;20482;-83
2023/02/22 04:13:50;;;;;;;28.23;18.10;;;7.50;99.90;;;;;;5022036;28;20477;-84
2023/02/22 04:16:17;;;;;;;28.13;17.57;;;7.40;99.90;;;;;;5017865;28;20463;-86
2023/02/22 04:18:44;;;;;;;25.23;15.30;;;7.40;99.90;;;;;;5014136;28;20490;-83
2023/02/22 04:21:13;;;;;;;28.90;16.97;;;7.40;99.90;;;;;;5017466;28;20465;-84
2023/02/22 04:23:40;;;;;;;27.73;16.63;;;7.40;99.90;;;;;;5018143;28;20514;-85
2023/02/22 04:26:07;;;;;;;26.63;16.67;;;7.30;99.90;;;;;;5012895;28;20843;-82
2023/02/22 04:28:34;;;;;;;27.47;15.93;;;7.20;99.90;;;;;;5013752;28;20473;-85
2023/02/22 04:31:01;;;;;;;23.47;16.17;;;7.20;99.90;;;;;;5014047;28;20506;-85
2023/02/22 04:33:29;;;;;;;19.10;14.67;;;7.20;99.90;;;;;;5017153;28;20801;-85
2023/02/22 04:35:58;;;;;;;26.57;15.50;;;7.30;99.90;;;;;;5018345;28;20458;-81
2023/02/22 04:38:25;;;;;;;35.07;17.20;;;7.40;99.90;;;;;;5018112;28;20442;-84
2023/02/22 04:40:56;;;;;;;27.63;17.27;;;7.40;99.90;;;;;;5022889;28;20561;-85
2023/02/22 04:43:24;;;;;;;27.07;17.07;;;7.40;99.90;;;;;;5019871;28;20489;-84
2023/02/22 04:45:51;;;;;;;21.00;14.40;;;7.30;99.90;;;;;;5028143;28;20537;-85
2023/02/22 04:48:17;;;;;;;22.80;15.60;;;7.40;99.90;;;;;;5014299;28;20537;-83
2023/02/22 04:50:46;;;;;;;22.43;16.30;;;7.50;99.90;;;;;;5016459;28;20454;-84
2023/02/22 04:53:13;;;;;;;23.60;16.33;;;7.50;99.90;;;;;;5006758;28;20580;-84
2023/02/22 04:55:40;;;;;;;32.70;17.53;;;7.50;99.90;;;;;;5011937;28;20517;-82
2023/02/22 04:58:07;;;;;;;25.10;17.47;;;7.40;99.90;;;;;;5013063;28;21158;-85
2023/02/22 05:00:35;;;;;;;26.30;16.27;;;7.50;99.90;;;;;;5009169;28;20451;-85
2023/02/22 05:03:01;;;;;;;27.73;15.17;;;7.40;99.90;;;;;;5017872;28;20482;-86
2023/02/22 05:05:28;;;;;;;29.23;18.23;;;7.40;99.90;;;;;;5014281;28;20580;-84
2023/02/22 05:07:55;;;;;;;27.07;18.27;;;7.40;99.90;;;;;;5011757;28;20518;-86
2023/02/22 05:10:24;;;;;;;27.53;16.27;;;7.30;99.90;;;;;;5012025;28;20537;-85
2023/02/22 05:12:50;;;;;;;28.30;17.57;;;7.40;99.90;;;;;;5017986;28;20504;-84
2023/02/22 05:15:20;;;;;;;25.20;16.80;;;7.40;99.90;;;;;;5015893;28;20454;-85
2023/02/22 05:17:47;;;;;;;24.97;16.30;;;7.40;99.90;;;;;;5012018;28;20557;-83
2023/02/22 05:20:36;;;;;;;26.33;16.23;;;7.30;99.90;;;;;;5013303;28;20446;-85
2023/02/22 05:23:06;;;;;;;26.40;17.07;;;7.20;99.90;;;;;;5028329;28;20502;-83
2023/02/22 05:25:37;;;;;;;20.83;14.87;;;7.30;99.90;;;;;;5033365;28;20466;-83
2023/02/22 05:28:22;;;;;;;25.97;16.30;;;7.20;99.90;;;;;;5025490;28;20454;-84
2023/02/22 05:30:50;;;;;;;21.10;13.93;;;7.20;99.90;;;;;;5027650;28;20458;-82
2023/02/22 05:33:18;;;;;;;26.40;17.07;;;7.50;99.90;;;;;;5515485;22;20440;-84
2023/02/22 05:35:49;;;;;;;20.27;14.73;;;7.60;99.90;;;;;;5035327;28;20450;-82
2023/02/22 05:38:23;;;;;;;20.03;15.30;;;7.40;99.90;;;;;;5033929;28;20522;-81
2023/02/22 05:40:53;;;;;;;22.63;14.47;;;7.30;99.90;;;;;;5035665;28;20458;-83
2023/02/22 05:43:27;;;;;;;19.67;14.10;;;7.40;99.90;;;;;;5008827;28;20471;-83
2023/02/22 05:45:54;;;;;;;18.30;13.60;;;7.30;99.90;;;;;;4993462;28;20447;-85
2023/02/22 05:51:03;;;;;;;18.00;12.00;;;7.60;99.90;;;;;;5067770;23;20497;-83
2023/02/22 05:56:06;;;;;;;19.37;13.30;;;7.60;99.90;;;;;;5156346;22;20497;-84
2023/02/22 05:58:33;;;;;;;16.93;13.30;;;7.70;99.90;;;;;;5178221;22;20509;-85
2023/02/22 06:01:01;;;;;;;16.87;12.60;;;7.80;99.90;;;;;;5005570;28;20478;-83
2023/02/22 06:03:29;;;;;;;21.10;14.23;;;7.70;99.90;;;;;;5004539;28;20495;-84
2023/02/22 06:05:56;;;;;;;17.80;14.20;;;7.70;99.90;;;;;;4998125;28;20457;-84
2023/02/22 06:08:23;;;;;;;18.60;13.37;;;7.60;99.90;;;;;;5000135;28;20561;-84
2023/02/22 06:10:53;;;;;;;18.63;14.00;;;7.50;99.90;;;;;;5011061;28;20455;-86
2023/02/22 06:13:20;;;;;;;18.30;13.33;;;7.50;99.90;;;;;;5000186;28;20577;-84
2023/02/22 06:15:47;;;;;;;17.60;13.00;;;7.40;99.90;;;;;;5015962;28;20447;-85
2023/02/22 06:18:14;;;;;;;18.00;12.43;;;7.40;99.90;;;;;;5005870;28;20466;-83
2023/02/22 06:20:41;;;;;;;18.27;14.27;;;7.30;99.90;;;;;;4993434;28;20465;-86
2023/02/22 06:23:08;;;;;;;14.67;11.97;;;7.30;99.90;;;;;;5002695;28;20475;-84
2023/02/22 06:25:35;;;;;;;17.97;12.03;;;7.10;99.90;;;;;;5000515;28;21125;-84
2023/02/22 06:28:04;;;;;;;18.43;12.73;;;7.10;99.90;;;;;;5016389;28;20478;-83
2023/02/22 06:30:31;;;;;;;15.23;11.50;;;7.20;99.90;;;;;;5001916;28;20550;-84
2023/02/22 06:32:58;;;;;;;15.40;11.90;;;7.10;99.90;;;;;;5014012;28;20517;-85
2023/02/22 06:35:25;;;;;;;14.77;11.00;;;7.20;99.90;;;;;;5001174;28;20497;-84
2023/02/22 06:37:52;;;;;;;18.17;12.73;;;7.50;99.90;;;;;;4998178;28;20494;-84
2023/02/22 06:40:19;;;;;;;21.57;14.50;;;7.60;99.90;;;;;;5013783;28;20534;-85
2023/02/22 06:42:47;;;;;;;19.40;12.10;;;7.50;99.90;;;;;;5012572;28;20544;-84
2023/02/22 06:45:26;;;;;;;17.10;12.17;;;7.20;99.90;;;;;;5017331;28;20457;-83
2023/02/22 06:47:54;;;;;;;15.93;12.03;;;7.10;99.90;;;;;;5016107;28;20453;-84
2023/02/22 06:52:49;;;;;;;12.80;10.50;;;7.10;99.90;;;;;;5004265;28;20503;-84
2023/02/22 06:55:28;;;;;;;18.13;12.33;;;7.10;99.90;;;;;;5003160;28;20460;-85
2023/02/22 06:57:56;;;;;;;15.70;12.20;;;7.30;99.90;;;;;;5005731;28;20463;-86
2023/02/22 07:00:24;;;;;;;18.27;11.77;;;7.30;99.90;;;;;;5014144;28;20447;-85
2023/02/22 07:02:53;;;;;;;16.77;11.20;;;7.40;99.90;;;;;;5012444;28;20483;-85
2023/02/22 07:05:22;;;;;;;15.33;11.70;;;7.50;99.90;;;;;;5016641;28;20463;-87
2023/02/22 07:07:51;;;;;;;18.53;12.40;;;7.40;99.90;;;;;;5011095;28;20482;-85
2023/02/22 07:10:32;;;;;;;17.40;12.83;;;7.50;99.90;;;;;;5009648;28;20974;-84
2023/02/22 07:13:02;;;;;;;15.80;12.20;;;7.40;99.90;;;;;;5000998;28;20490;-84
2023/02/22 07:15:31;;;;;;;18.43;13.17;;;7.40;99.90;;;;;;4997339;28;20444;-84
2023/02/22 07:17:59;;;;;;;15.67;11.20;;;7.50;99.90;;;;;;5002007;28;20539;-83
2023/02/22 07:20:29;;;;;;;23.10;13.20;;;7.40;99.90;;;;;;4995655;28;20466;-84
2023/02/22 07:22:56;;;;;;;20.50;13.10;;;7.30;99.90;;;;;;4997756;28;20470;-83
2023/02/22 07:25:23;;;;;;;21.83;14.50;;;7.30;99.90;;;;;;5001687;28;20507;-85
2023/02/22 07:27:51;;;;;;;21.60;13.87;;;7.50;99.90;;;;;;5012814;28;20555;-84
2023/02/22 07:30:24;;;;;;;19.60;13.33;;;7.60;99.90;;;;;;4989326;28;20471;-83
2023/02/22 07:32:56;;;;;;;18.57;12.17;;;7.60;99.90;;;;;;4999198;28;20479;-84
2023/02/22 07:35:35;;;;;;;22.20;14.00;;;7.80;99.90;;;;;;4997595;28;20510;-83
2023/02/22 07:38:10;;;;;;;16.87;13.97;;;7.70;99.90;;;;;;4990926;28;20455;-84
2023/02/22 07:40:38;;;;;;;18.93;13.50;;;7.70;99.90;;;;;;4998871;28;20515;-83
2023/02/22 07:43:21;;;;;;;18.40;13.50;;;7.70;99.90;;;;;;4993249;28;20483;-85
2023/02/22 07:45:51;;;;;;;22.00;14.77;;;7.80;99.90;;;;;;4992125;28;20480;-86
2023/02/22 07:48:21;;;;;;;19.27;15.40;;;8.00;99.90;;;;;;4998196;28;20474;-84
2023/02/22 07:50:49;;;;;;;19.70;13.27;;;8.20;99.90;;;;;;5001029;28;20452;-84
2023/02/22 07:53:19;;;;;;;17.70;12.07;;;8.20;99.90;;;;;;4999009;28;21018;-84
2023/02/22 07:55:52;;;;;;;20.73;14.20;;;8.30;99.90;;;;;;5006203;28;20458;-84
2023/02/22 07:58:29;;;;;;;21.10;14.43;;;8.30;99.90;;;;;;4993539;28;20494;-84
2023/02/22 08:01:02;;;;;;;18.20;13.37;;;8.30;99.90;;;;;;4991411;28;20455;-85
2023/02/22 08:03:35;;;;;;;18.83;14.10;;;8.60;99.90;;;;;;5000175;28;20495;-85
2023/02/22 08:06:04;;;;;;;17.73;12.40;;;8.70;99.90;;;;;;5001686;28;20471;-84
2023/02/22 08:08:31;;;;;;;16.07;12.60;;;8.80;99.90;;;;;;4986652;28;21236;-85
2023/02/22 08:11:03;;;;;;;16.87;13.17;;;9.00;99.90;;;;;;4989489;28;20460;-85
2023/02/22 08:13:31;;;;;;;15.30;12.57;;;8.70;99.90;;;;;;4989754;28;20702;-84
2023/02/22 08:15:58;;;;;;;17.17;12.43;;;8.70;99.90;;;;;;4997148;28;20444;-84
2023/02/22 08:18:26;;;;;;;17.77;14.03;;;8.70;99.90;;;;;;4997507;28;20462;-84
2023/02/22 08:20:55;;;;;;;16.60;13.30;;;8.50;99.90;;;;;;4996998;28;20470;-86
2023/02/22 08:23:25;;;;;;;18.90;12.77;;;8.60;99.90;;;;;;4998970;28;20506;-85
2023/02/22 08:25:53;;;;;;;21.27;15.23;;;8.70;99.90;;;;;;4997810;28;20475;-86
2023/02/22 08:28:22;;;;;;;15.83;12.40;;;8.80;99.90;;;;;;4991496;28;20486;-85
2023/02/22 08:30:49;;;;;;;14.80;12.13;;;8.80;99.90;;;;;;4996612;28;20467;-85
2023/02/22 08:33:18;;;;;;;16.70;12.40;;;8.90;99.90;;;;;;5020522;28;20479;-84
2023/02/22 08:35:52;;;;;;;19.70;13.97;;;9.20;99.90;;;;;;4993495;28;20453;-84
2023/02/22 08:38:28;;;;;;;17.37;12.67;;;9.00;99.90;;;;;;5004655;28;20514;-86
2023/02/22 08:40:56;;;;;;;21.73;14.90;;;9.30;99.90;;;;;;4998727;28;20554;-83
2023/02/22 08:43:27;;;;;;;16.23;13.10;;;9.50;99.90;;;;;;5003137;28;20485;-85
2023/02/22 08:45:54;;;;;;;16.50;13.50;;;9.60;99.90;;;;;;5019713;28;20427;-84
2023/02/22 08:48:23;;;;;;;18.30;12.47;;;9.60;99.90;;;;;;4996647;28;20465;-85
2023/02/22 08:50:50;;;;;;;17.20;13.20;;;9.60;99.90;;;;;;5001578;28;20451;-84
2023/02/22 08:53:17;;;;;;;19.00;13.47;;;9.50;99.90;;;;;;4996399;28;20515;-85
2023/02/22 08:55:44;;;;;;;19.63;12.80;;;9.60;99.90;;;;;;4992044;28;20444;-86
2023/02/22 08:58:12;;;;;;;23.17;13.00;;;9.60;99.90;;;;;;4996060;28;20459;-85
2023/02/22 09:00:40;;;;;;;21.83;14.00;;;9.40;99.90;;;;;;4994519;28;20447;-84
2023/02/22 09:03:11;;;;;;;13.90;10.60;;;9.70;99.90;;;;;;4995374;28;20523;-85
2023/02/22 09:05:40;;;;;;;20.43;13.77;;;9.80;99.90;;;;;;4997816;28;20480;-84
2023/02/22 09:08:07;;;;;;;17.70;13.57;;;9.70;99.90;;;;;;4995924;28;20448;-84
2023/02/22 09:10:35;;;;;;;19.00;12.67;;;9.60;99.90;;;;;;5001416;28;20466;-84
2023/02/22 09:13:02;;;;;;;17.00;13.87;;;9.70;99.90;;;;;;5003490;28;20525;-84
2023/02/22 09:15:31;;;;;;;18.10;13.10;;;9.70;99.90;;;;;;5000339;28;20459;-84
2023/02/22 09:17:58;;;;;;;23.30;14.43;;;9.90;99.90;;;;;;5003375;28;20467;-85
2023/02/22 09:20:25;;;;;;;18.77;12.40;;;9.80;99.90;;;;;;5009194;28;20467;-85
2023/02/22 09:22:53;;;;;;;19.53;14.67;;;9.90;99.90;;;;;;5014680;28;20484;-86
2023/02/22 09:25:22;;;;;;;21.30;14.00;;;10.00;99.90;;;;;;5013643;28;20521;-84
2023/02/22 09:27:51;;;;;;;25.20;13.87;;;10.10;99.90;;;;;;5008123;28;20480;-86
2023/02/22 09:30:34;;;;;;;18.23;13.53;;;10.10;99.90;;;;;;5004495;28;20476;-86
2023/02/22 09:33:10;;;;;;;19.00;14.30;;;10.00;99.90;;;;;;5015176;28;20486;-86
2023/02/22 09:35:45;;;;;;;17.07;13.50;;;9.90;99.90;;;;;;5003344;28;20454;-85
2023/02/22 09:38:14;;;;;;;19.70;13.17;;;10.10;99.90;;;;;;4988283;28;20456;-83
2023/02/22 09:41:31;;;;;;;21.40;14.10;;;10.30;99.90;;;;;;5001279;28;20476;-84
2023/02/22 09:44:23;;;;;;;21.47;14.00;;;10.40;99.90;;;;;;5001203;28;20475;-83
2023/02/22 09:46:53;;;;;;;16.20;12.80;;;10.40;99.90;;;;;;5000581;28;20909;-86
2023/02/22 09:49:58;;;;;;;19.13;13.53;;;10.50;99.90;;;;;;5020306;28;20458;-85
2023/02/22 09:52:38;;;;;;;17.77;13.70;;;10.60;99.90;;;;;;5006390;28;20514;-83
2023/02/22 09:55:35;;;;;;;18.43;13.67;;;10.80;99.90;;;;;;5016480;28;20515;-85
2023/02/22 09:58:23;;;;;;;22.60;14.20;;;10.90;99.90;;;;;;5006004;28;20476;-86
2023/02/22 10:00:58;;;;;;;17.50;12.87;;;10.80;99.90;;;;;;5012578;28;20450;-85
2023/02/22 10:03:49;;;;;;;15.60;12.17;;;10.90;99.90;;;;;;5012214;28;20489;-86
2023/02/22 10:06:21;;;;;;;18.50;13.13;;;11.60;99.90;;;;;;5007556;28;20451;-86
2023/02/22 10:08:55;;;;;;;18.87;14.00;;;12.00;99.40;;;;;;5012055;28;20461;-86
2023/02/22 10:11:54;;;;;;;14.27;11.97;;;12.40;98.50;;;;;;5015135;28;20443;-85
2023/02/22 10:14:40;;;;;;;16.83;12.90;;;12.70;97.60;;;;;;5014390;28;20503;-84
2023/02/22 10:17:27;;;;;;;15.93;12.47;;;13.20;96.90;;;;;;5009636;28;20537;-85
2023/02/22 10:20:19;;;;;;;19.60;14.07;;;13.10;96.50;;;;;;4997115;28;20495;-83
2023/02/22 10:23:09;;;;;;;16.73;13.00;;;12.90;96.30;;;;;;4994199;28;20456;-83
2023/02/22 10:25:38;;;;;;;16.80;11.93;;;12.50;97.20;;;;;;4998570;28;20460;-82
2023/02/22 10:28:12;;;;;;;15.33;11.37;;;12.80;97.30;;;;;;5001983;28;20455;-84
2023/02/22 10:30:48;;;;;;;16.77;12.03;;;13.00;96.90;;;;;;4998951;28;20459;-83
2023/02/22 10:33:45;;;;;;;15.77;12.07;;;12.80;96.60;;;;;;5008253;28;20474;-85
2023/02/22 10:36:19;;;;;;;17.10;12.60;;;12.60;97.00;;;;;;4999514;28;20451;-86
2023/02/22 10:38:55;;;;;;;18.27;13.10;;;12.60;97.60;;;;;;5010549;28;20451;-87
2023/02/22 10:41:31;;;;;;;15.27;11.80;;;12.70;97.80;;;;;;5007067;28;20494;-87
2023/02/22 10:44:00;;;;;;;14.43;11.03;;;12.80;97.00;;;;;;5015266;28;20512;-88
2023/02/22 10:46:29;;;;;;;14.90;12.00;;;12.70;97.50;;;;;;5013744;28;20445;-85
2023/02/22 10:49:03;;;;;;;14.00;10.90;;;12.80;97.30;;;;;;4994574;28;20476;-84
2023/02/22 10:51:30;;;;;;;15.20;11.70;;;12.80;97.20;;;;;;5000972;28;20475;-83
2023/02/22 10:54:12;;;;;;;15.93;12.17;;;13.00;97.20;;;;;;4993409;28;20551;-83
2023/02/22 10:56:48;;;;;;;14.00;11.00;;;12.90;96.80;;;;;;4997564;28;20690;-84
2023/02/22 10:59:35;;;;;;;14.33;11.27;;;12.90;96.70;;;;;;4992070;28;20512;-85
2023/02/22 11:02:34;;;;;;;13.20;10.90;;;12.60;97.20;;;;;;4991379;28;20452;-83
2023/02/22 11:05:03;;;;;;;13.80;9.90;;;12.80;97.20;;;;;;4992293;28;20478;-84
2023/02/22 11:07:35;;;;;;;11.93;10.13;;;12.80;96.90;;;;;;4992863;28;20558;-84
2023/02/22 11:10:08;;;;;;;17.17;11.13;;;12.80;97.00;;;;;;4992110;28;20550;-84
2023/02/22 11:12:37;;;;;;;13.17;10.47;;;12.90;97.40;;;;;;4989366;28;20499;-85
2023/02/22 11:15:21;;;;;;;13.13;10.23;;;13.10;96.90;;;;;;4995998;28;20558;-84
2023/02/22 11:18:03;;;;;;;10.57;9.23;;;13.20;96.90;;;;;;4992410;28;20462;-83
2023/02/22 11:20:37;;;;;;;11.70;8.07;;;13.00;96.70;;;;;;4994570;28;20459;-85
2023/02/22 11:23:06;;;;;;;12.07;9.20;;;13.00;96.90;;;;;;5000024;28;20475;-83
2023/02/22 11:25:38;;;;;;;11.53;10.30;;;13.20;96.70;;;;;;4998336;28;20454;-84
2023/02/22 11:28:29;;;;;;;13.97;10.20;;;13.50;96.20;;;;;;5000613;28;20483;-84
2023/02/22 11:31:08;;;;;;;11.70;8.57;;;13.80;95.70;;;;;;4998509;28;20463;-84
2023/02/22 11:33:36;;;;;;;12.27;8.60;;;14.00;95.50;;;;;;4992919;28;20503;-83
2023/02/22 11:36:08;;;;;;;11.20;8.50;;;14.10;94.70;;;;;;5000737;28;20432;-88
2023/02/22 11:38:52;;;;;;;12.67;7.63;;;14.10;94.70;;;;;;5006206;28;20447;-86
2023/02/22 11:41:29;;;;;;;9.80;6.80;;;14.20;94.40;;;;;;5008614;28;20466;-84
2023/02/22 11:44:22;;;;;;;10.30;7.60;;;14.30;93.90;;;;;;5002363;28;20555;-86
2023/02/22 11:46:54;;;;;;;8.53;7.00;;;14.20;93.50;;;;;;4997416;28;20459;-85
2023/02/22 11:49:35;;;;;;;9.20;7.30;;;14.40;93.50;;;;;;4993535;28;20542;-83
2023/02/22 11:52:27;;;;;;;11.63;7.23;;;14.30;93.20;;;;;;4990694;28;20470;-85
2023/02/22 11:55:20;;;;;;;9.17;7.10;;;14.30;93.00;;;;;;4996550;28;20514;-83
2023/02/22 11:58:03;;;;;;;8.37;6.57;;;14.50;93.00;;;;;;4989207;28;20512;-84
2023/02/22 12:00:55;;;;;;;9.67;6.70;;;14.60;92.50;;;;;;4993918;28;20464;-86
2023/02/22 12:03:34;;;;;;;10.27;7.90;;;14.60;92.20;;;;;;4992138;28;20648;-85
2023/02/22 12:06:05;;;;;;;9.17;7.67;;;14.50;92.50;;;;;;4997839;28;20498;-83
2023/02/22 12:08:41;;;;;;;9.43;7.03;;;14.50;92.50;;;;;;4998325;28;20527;-84
2023/02/22 12:11:19;;;;;;;8.57;7.40;;;14.70;92.20;;;;;;4993135;28;20438;-86
2023/02/22 12:14:18;;;;;;;12.00;7.00;;;14.70;91.40;;;;;;4992336;28;20550;-84
2023/02/22 12:17:14;;;;;;;9.30;7.20;;;14.50;91.60;;;;;;5002474;28;20464;-86
2023/02/22 12:19:48;;;;;;;9.67;7.70;;;14.40;91.50;;;;;;5006344;28;20510;-85
2023/02/22 12:22:23;;;;;;;12.80;7.63;;;14.20;91.80;;;;;;4985754;28;20662;-85
2023/02/22 12:25:08;;;;;;;8.80;6.60;;;14.50;91.40;;;;;;4995005;28;20548;-85
2023/02/22 12:27:41;;;;;;;8.93;7.03;;;14.60;90.90;;;;;;4990475;28;20456;-84
2023/02/22 12:30:25;;;;;;;8.80;6.50;;;14.40;91.10;;;;;;4992680;28;20456;-84
2023/02/22 12:32:58;;;;;;;8.13;7.17;;;14.40;91.10;;;;;;4994519;28;20444;-83
2023/02/22 12:35:38;;;;;;;8.43;6.33;;;14.10;91.10;;;;;;4989217;28;20444;-85
2023/02/22 12:38:43;;;;;;;10.97;5.97;;;14.20;91.30;;;;;;4995957;28;20459;-84
2023/02/22 12:41:27;;;;;;;7.83;6.23;;;14.30;91.20;;;;;;4966925;28;20471;-85
2023/02/22 12:44:05;;;;;;;9.27;6.83;;;14.30;90.70;;;;;;4990355;28;20479;-85
2023/02/22 12:46:45;;;;;;;9.27;6.57;;;14.40;90.60;;;;;;4999389;28;20451;-84
2023/02/22 12:49:18;;;;;;;7.90;6.70;;;14.60;90.20;;;;;;5010604;28;20454;-82
2023/02/22 12:51:51;;;;;;;9.27;6.93;;;14.50;90.10;;;;;;5011467;28;20451;-84
2023/02/22 12:54:40;;;;;;;8.57;6.33;;;14.30;90.40;;;;;;4991630;28;20505;-83
2023/02/22 12:57:21;;;;;;;9.40;6.87;;;14.60;90.10;;;;;;5005564;28;20451;-84
2023/02/22 13:00:05;;;;;;;10.43;7.43;;;14.60;90.00;;;;;;4995466;28;20533;-85
2023/02/22 13:02:41;;;;;;;7.60;6.57;;;14.60;90.10;;;;;;4998055;28;20455;-84
2023/02/22 13:05:19;;;;;;;8.57;6.30;;;14.60;89.80;;;;;;4992258;28;20518;-84
2023/02/22 13:08:02;;;;;;;7.33;6.10;;;14.40;90.40;;;;;;4994545;28;20443;-85
2023/02/22 13:10:50;;;;;;;9.97;6.80;;;14.60;90.20;;;;;;4994779;28;20446;-85
2023/02/22 13:13:45;;;;;;;9.90;7.07;;;14.60;90.30;;;;;;4990455;28;20490;-83
2023/02/22 13:16:38;;;;;;;7.50;5.90;;;14.40;90.50;;;;;;5015854;28;20448;-84
2023/02/22 13:22:44;;;;;;;9.27;6.30;;;15.10;89.90;;;;;;5126426;23;20513;-85
2023/02/22 13:25:22;;;;;;;11.37;7.00;;;15.10;89.90;;;;;;5004888;28;20571;-85
2023/02/22 13:28:09;;;;;;;9.20;6.80;;;15.20;90.00;;;;;;5008285;28;20458;-84
2023/02/22 13:30:44;;;;;;;9.43;6.97;;;15.10;89.80;;;;;;5016459;28;20482;-85
2023/02/22 13:33:36;;;;;;;6.70;6.00;;;14.90;90.50;;;;;;4999475;28;20959;-84
2023/02/22 13:36:20;;;;;;;10.00;7.60;;;14.90;90.30;;;;;;4993037;28;20456;-85